createdAt,value
2018-07-06T00:00:27.143Z,18.70
2018-07-06T00:03:06.881Z,18.70
2018-07-06T00:05:46.548Z,18.70
2018-07-06T00:08:26.326Z,18.60
2018-07-06T00:11:06.130Z,18.50
2018-07-06T00:13:45.885Z,18.50
2018-07-06T00:16:25.628Z,18.40
2018-07-06T00:19:05.297Z,18.40
2018-07-06T00:21:45.026Z,18.40
2018-07-06T00:24:24.766Z,18.40
2018-07-06T00:27:04.506Z,18.30
2018-07-06T00:29:44.150Z,18.30
2018-07-06T00:32:23.908Z,18.20
2018-07-06T00:35:03.659Z,18.20
2018-07-06T00:37:43.385Z,18.20
2018-07-06T00:40:23.039Z,18.20
2018-07-06T00:43:02.717Z,18.10
2018-07-06T00:45:42.405Z,18.10
2018-07-06T00:48:22.031Z,18.10
2018-07-06T00:51:03.070Z,18.00
2018-07-06T00:53:43.061Z,18.00
2018-07-06T00:56:23.060Z,18.00
2018-07-06T00:59:02.753Z,18.00
2018-07-06T01:01:42.465Z,18.00
2018-07-06T01:04:21.928Z,17.90
2018-07-06T01:07:01.665Z,17.90
2018-07-06T01:09:41.538Z,17.90
2018-07-06T01:12:26.454Z,17.90
2018-07-06T01:15:11.507Z,17.80
2018-07-06T01:17:51.089Z,17.70
2018-07-06T01:20:30.718Z,17.60
2018-07-06T01:23:10.448Z,17.60
2018-07-06T01:25:50.184Z,17.50
2018-07-06T01:28:29.980Z,17.50
2018-07-06T01:31:09.696Z,17.50
2018-07-06T01:33:49.780Z,17.50
2018-07-06T01:36:29.539Z,17.50
2018-07-06T01:39:09.182Z,17.50
2018-07-06T01:41:48.924Z,17.50
2018-07-06T01:44:28.548Z,17.40
2018-07-06T01:47:08.317Z,17.30
2018-07-06T01:49:48.013Z,17.30
2018-07-06T01:52:27.653Z,17.30
2018-07-06T01:55:07.474Z,17.30
2018-07-06T01:57:47.182Z,17.30
2018-07-06T02:00:26.996Z,17.20
2018-07-06T02:03:06.762Z,17.20
2018-07-06T02:05:46.845Z,17.10
2018-07-06T02:08:27.045Z,17.10
2018-07-06T02:11:06.802Z,17.10
2018-07-06T02:13:46.596Z,17.10
2018-07-06T02:16:26.327Z,17.00
2018-07-06T02:19:05.942Z,17.00
2018-07-06T02:21:45.803Z,16.90
2018-07-06T02:24:25.474Z,16.90
2018-07-06T02:27:05.114Z,16.90
2018-07-06T02:29:44.856Z,16.90
2018-07-06T02:32:24.530Z,16.80
2018-07-06T02:35:04.355Z,16.80
2018-07-06T02:37:44.136Z,16.80
2018-07-06T02:40:24.823Z,16.70
2018-07-06T02:43:04.591Z,16.70
2018-07-06T02:45:44.364Z,16.70
2018-07-06T02:48:24.015Z,16.70
2018-07-06T02:51:03.628Z,16.70
2018-07-06T02:53:43.421Z,16.70
2018-07-06T02:56:23.017Z,16.70
2018-07-06T02:59:02.676Z,16.60
2018-07-06T03:01:42.465Z,16.60
2018-07-06T03:04:22.194Z,16.60
2018-07-06T03:07:01.836Z,16.50
2018-07-06T03:09:41.476Z,16.50
2018-07-06T03:12:21.181Z,16.50
2018-07-06T03:15:00.968Z,16.50
2018-07-06T03:17:40.605Z,16.50
2018-07-06T03:20:20.349Z,16.50
2018-07-06T03:22:59.956Z,16.50
2018-07-06T03:25:39.648Z,16.50
2018-07-06T03:28:19.473Z,16.40
2018-07-06T03:30:59.115Z,16.40
2018-07-06T03:33:38.737Z,16.50
2018-07-06T03:36:18.509Z,16.30
2018-07-06T03:38:58.022Z,16.10
2018-07-06T03:41:37.631Z,15.80
2018-07-06T03:44:17.211Z,15.60
2018-07-06T03:46:57.036Z,15.50
2018-07-06T03:49:36.865Z,15.50
2018-07-06T03:52:16.678Z,15.30
2018-07-06T03:54:56.866Z,15.20
2018-07-06T03:57:37.210Z,15.20
2018-07-06T04:00:16.907Z,15.20
2018-07-06T04:02:56.545Z,15.20
2018-07-06T04:05:36.268Z,15.20
2018-07-06T04:08:15.979Z,15.20
2018-07-06T04:10:55.641Z,15.20
2018-07-06T04:13:35.284Z,15.30
2018-07-06T04:16:14.935Z,15.40
2018-07-06T04:19:01.717Z,15.50
2018-07-06T04:21:41.510Z,15.60
2018-07-06T04:24:21.129Z,15.60
2018-07-06T04:27:00.902Z,15.60
2018-07-06T04:29:40.471Z,15.70
2018-07-06T04:32:20.256Z,15.80
2018-07-06T04:34:59.990Z,15.90
2018-07-06T04:37:40.125Z,16.00
2018-07-06T04:40:19.896Z,16.00
2018-07-06T04:42:59.728Z,16.00
2018-07-06T04:45:39.249Z,15.90
2018-07-06T04:48:18.878Z,15.90
2018-07-06T04:50:58.704Z,15.90
2018-07-06T04:53:38.488Z,15.90
2018-07-06T04:56:18.134Z,15.90
2018-07-06T04:58:57.903Z,15.90
2018-07-06T05:01:37.723Z,16.00
2018-07-06T05:04:17.348Z,15.90
2018-07-06T05:06:57.041Z,15.90
2018-07-06T05:09:36.557Z,15.80
2018-07-06T05:12:16.507Z,15.80
2018-07-06T05:14:56.199Z,15.70
2018-07-06T05:17:35.973Z,15.70
2018-07-06T05:20:15.618Z,15.80
2018-07-06T05:22:55.377Z,16.00
2018-07-06T05:25:35.030Z,16.00
2018-07-06T05:28:14.713Z,16.10
2018-07-06T05:30:54.452Z,16.10
2018-07-06T05:33:34.144Z,16.10
2018-07-06T05:36:13.809Z,16.10
2018-07-06T05:38:53.524Z,16.20
2018-07-06T05:41:33.171Z,16.30
2018-07-06T05:44:12.808Z,16.30
2018-07-06T05:46:52.591Z,16.30
2018-07-06T05:49:32.219Z,16.30
2018-07-06T05:52:11.874Z,16.40
2018-07-06T05:54:51.573Z,16.40
2018-07-06T05:57:31.342Z,16.60
2018-07-06T06:00:11.011Z,16.70
2018-07-06T06:02:50.575Z,16.70
2018-07-06T06:05:30.226Z,16.70
2018-07-06T06:07:57.629Z,16.70
2018-07-06T06:10:26.269Z,16.80
2018-07-06T06:12:54.876Z,16.70
2018-07-06T06:15:23.771Z,16.70
2018-07-06T06:17:52.402Z,16.70
2018-07-06T06:20:21.040Z,16.70
2018-07-06T06:22:49.657Z,16.80
2018-07-06T06:25:18.300Z,16.90
2018-07-06T06:27:46.954Z,17.00
2018-07-06T06:30:15.561Z,17.00
2018-07-06T06:32:44.749Z,17.00
2018-07-06T06:35:13.331Z,17.00
2018-07-06T06:37:42.374Z,17.00
2018-07-06T06:40:11.057Z,17.10
2018-07-06T06:42:39.679Z,17.20
2018-07-06T06:45:08.311Z,17.30
2018-07-06T06:47:36.962Z,17.40
2018-07-06T06:50:05.628Z,17.50
2018-07-06T06:52:34.298Z,17.50
2018-07-06T06:55:03.003Z,17.60
2018-07-06T06:57:31.684Z,17.50
2018-07-06T07:00:00.361Z,17.50
2018-07-06T07:02:29.149Z,17.40
2018-07-06T07:04:57.850Z,17.50
2018-07-06T07:07:26.843Z,17.50
2018-07-06T07:09:55.522Z,17.50
2018-07-06T07:12:24.228Z,17.60
2018-07-06T07:14:52.894Z,17.60
2018-07-06T07:17:21.532Z,17.60
2018-07-06T07:19:50.269Z,17.70
2018-07-06T07:22:18.980Z,17.80
2018-07-06T07:24:47.697Z,17.90
2018-07-06T07:27:16.435Z,18.10
2018-07-06T07:29:45.127Z,18.10
2018-07-06T07:32:13.840Z,18.10
2018-07-06T07:34:42.579Z,18.20
2018-07-06T07:37:11.238Z,18.20
2018-07-06T07:39:39.967Z,18.20
2018-07-06T07:42:08.656Z,18.00
2018-07-06T07:44:37.264Z,18.10
2018-07-06T07:47:05.989Z,18.20
2018-07-06T07:49:34.663Z,18.30
2018-07-06T07:52:14.284Z,18.40
2018-07-06T07:54:46.056Z,18.50
2018-07-06T07:57:14.999Z,18.50
2018-07-06T07:59:44.086Z,18.50
2018-07-06T08:02:12.802Z,18.60
2018-07-06T08:04:41.840Z,18.80
2018-07-06T08:07:10.468Z,18.70
2018-07-06T08:09:39.188Z,18.70
2018-07-06T08:12:07.905Z,18.90
2018-07-06T08:14:36.975Z,19.10
2018-07-06T08:17:05.873Z,19.20
2018-07-06T08:19:34.527Z,19.40
2018-07-06T08:22:03.154Z,19.50
2018-07-06T08:24:32.753Z,19.60
2018-07-06T08:27:01.366Z,19.70
2018-07-06T08:29:29.971Z,19.90
2018-07-06T08:31:58.601Z,19.90
2018-07-06T08:34:38.391Z,19.90
2018-07-06T08:37:29.328Z,19.90
2018-07-06T08:39:58.533Z,20.00
2018-07-06T08:42:28.334Z,20.10
2018-07-06T08:44:57.702Z,20.10
2018-07-06T08:47:26.429Z,19.70
2018-07-06T08:49:55.948Z,19.80
2018-07-06T08:52:24.580Z,20.00
2018-07-06T08:54:53.510Z,20.20
2018-07-06T08:57:22.982Z,20.20
2018-07-06T08:59:52.292Z,20.50
2018-07-06T09:02:21.277Z,20.60
2018-07-06T09:04:50.567Z,20.40
2018-07-06T09:07:19.213Z,20.40
2018-07-06T09:09:47.948Z,20.40
2018-07-06T09:12:16.576Z,20.40
2018-07-06T09:14:45.163Z,20.30
2018-07-06T09:17:15.786Z,20.20
2018-07-06T09:19:45.028Z,20.40
2018-07-06T09:22:14.251Z,20.70
2018-07-06T09:24:43.645Z,20.90
2018-07-06T09:27:12.298Z,21.10
2018-07-06T09:29:41.104Z,21.10
2018-07-06T09:32:10.037Z,21.40
2018-07-06T09:34:38.855Z,21.70
2018-07-06T09:37:08.226Z,21.70
2018-07-06T09:39:37.297Z,21.90
2018-07-06T09:42:05.925Z,22.20
2018-07-06T09:44:34.566Z,22.60
2018-07-06T09:47:03.499Z,22.80
2018-07-06T09:49:32.001Z,23.20
2018-07-06T09:52:00.721Z,23.20
2018-07-06T09:54:29.408Z,23.60
2018-07-06T09:56:58.085Z,23.40
2018-07-06T09:59:26.748Z,23.30
2018-07-06T10:01:55.406Z,23.40
2018-07-06T10:04:24.138Z,23.70
2018-07-06T10:06:52.734Z,23.70
2018-07-06T10:09:21.333Z,24.10
2018-07-06T10:11:49.977Z,24.30
2018-07-06T10:14:18.617Z,23.70
2018-07-06T10:16:47.288Z,23.10
2018-07-06T10:19:15.945Z,23.30
2018-07-06T10:21:44.594Z,23.60
2018-07-06T10:24:13.202Z,24.20
2018-07-06T10:26:41.869Z,24.20
2018-07-06T10:29:35.658Z,24.20
2018-07-06T10:32:18.296Z,24.00
2018-07-06T10:34:47.077Z,24.60
2018-07-06T10:37:16.650Z,25.10
2018-07-06T10:39:45.421Z,25.50
2018-07-06T10:42:14.036Z,25.50
2018-07-06T10:44:42.703Z,25.80
2018-07-06T10:47:11.722Z,25.40
2018-07-06T10:49:40.353Z,25.00
2018-07-06T10:52:09.666Z,25.20
2018-07-06T10:54:39.070Z,25.20
2018-07-06T10:57:08.094Z,25.30
2018-07-06T10:59:36.788Z,25.40
2018-07-06T11:02:05.580Z,25.20
2018-07-06T11:04:35.090Z,25.50
2018-07-06T11:07:03.728Z,25.10
2018-07-06T11:09:32.403Z,25.10
2018-07-06T11:12:01.194Z,25.70
2018-07-06T11:14:29.825Z,26.20
2018-07-06T11:16:58.443Z,26.70
2018-07-06T11:19:27.170Z,27.10
2018-07-06T11:21:55.892Z,27.00
2018-07-06T11:24:24.619Z,26.80
2018-07-06T11:26:53.261Z,27.10
2018-07-06T11:29:21.894Z,27.20
2018-07-06T11:31:50.523Z,27.50
2018-07-06T11:34:19.193Z,27.40
2018-07-06T11:36:47.813Z,27.00
2018-07-06T11:39:16.516Z,27.30
2018-07-06T11:41:46.140Z,27.60
2018-07-06T11:44:14.815Z,27.80
2018-07-06T11:46:43.521Z,27.90
2018-07-06T11:49:12.142Z,28.00
2018-07-06T11:51:40.786Z,28.40
2018-07-06T11:54:09.396Z,28.40
2018-07-06T11:56:38.035Z,28.40
2018-07-06T11:59:06.693Z,28.30
2018-07-06T12:01:35.312Z,28.00
2018-07-06T12:04:04.138Z,28.00
2018-07-06T12:06:32.631Z,27.90
2018-07-06T12:09:01.307Z,27.80
2018-07-06T12:11:30.224Z,27.70
2018-07-06T12:13:59.702Z,27.70
2018-07-06T12:16:28.352Z,28.00
2018-07-06T12:18:56.993Z,28.40
2018-07-06T12:21:25.722Z,28.60
2018-07-06T12:23:54.435Z,27.80
2018-07-06T12:26:23.033Z,27.40
2018-07-06T12:28:51.724Z,27.70
2018-07-06T12:31:20.339Z,27.90
2018-07-06T12:33:48.981Z,28.10
2018-07-06T12:36:17.659Z,28.50
2018-07-06T12:38:46.945Z,28.50
2018-07-06T12:41:15.575Z,28.20
2018-07-06T12:43:44.200Z,28.40
2018-07-06T12:46:12.850Z,28.30
2018-07-06T12:48:41.549Z,28.20
2018-07-06T12:51:10.228Z,28.30
2018-07-06T12:53:38.849Z,28.60
2018-07-06T12:56:07.468Z,29.00
2018-07-06T12:58:36.218Z,28.80
2018-07-06T13:01:04.812Z,28.90
2018-07-06T13:03:33.508Z,28.60
2018-07-06T13:06:02.159Z,28.10
2018-07-06T13:08:30.792Z,28.10
2018-07-06T13:10:59.421Z,27.80
2018-07-06T13:13:28.058Z,28.00
2018-07-06T13:15:56.700Z,27.90
2018-07-06T13:18:25.430Z,28.10
2018-07-06T13:20:54.167Z,28.10
2018-07-06T13:23:22.862Z,28.10
2018-07-06T13:25:51.675Z,28.00
2018-07-06T13:28:20.286Z,27.80
2018-07-06T13:30:48.925Z,27.70
2018-07-06T13:33:17.517Z,27.30
2018-07-06T13:35:46.132Z,27.30
2018-07-06T13:38:14.770Z,27.10
2018-07-06T13:40:43.664Z,27.00
2018-07-06T13:43:12.286Z,27.00
2018-07-06T13:45:40.940Z,27.00
2018-07-06T13:48:09.598Z,26.80
2018-07-06T13:50:38.298Z,27.00
2018-07-06T13:53:07.122Z,27.10
2018-07-06T13:55:35.688Z,27.30
2018-07-06T13:58:04.375Z,27.40
2018-07-06T14:00:33.011Z,27.40
2018-07-06T14:03:01.685Z,27.50
2018-07-06T14:05:30.294Z,27.50
2018-07-06T14:07:58.964Z,27.50
2018-07-06T14:10:29.784Z,27.20
2018-07-06T14:12:58.584Z,27.00
2018-07-06T14:15:27.214Z,26.80
2018-07-06T14:17:55.848Z,27.00
2018-07-06T14:20:24.464Z,27.00
2018-07-06T14:22:53.069Z,27.00
2018-07-06T14:25:21.695Z,27.10
2018-07-06T14:27:52.346Z,27.30
2018-07-06T14:30:21.018Z,27.60
2018-07-06T14:32:49.651Z,27.60
2018-07-06T14:35:18.262Z,27.60
2018-07-06T14:37:46.868Z,27.60
2018-07-06T14:40:15.540Z,27.60
2018-07-06T14:42:44.151Z,27.10
2018-07-06T14:45:12.769Z,27.20
2018-07-06T14:47:41.356Z,27.10
2018-07-06T14:50:10.038Z,26.90
2018-07-06T14:52:38.694Z,27.10
2018-07-06T14:55:07.337Z,27.30
2018-07-06T14:57:35.999Z,27.50
2018-07-06T15:00:05.294Z,27.50
2018-07-06T15:02:34.262Z,27.40
2018-07-06T15:05:02.929Z,27.10
2018-07-06T15:07:31.628Z,26.80
2018-07-06T15:10:00.243Z,26.20
2018-07-06T15:12:28.942Z,26.10
2018-07-06T15:14:57.529Z,26.00
2018-07-06T15:17:26.170Z,26.10
2018-07-06T15:19:54.820Z,26.10
2018-07-06T15:22:24.373Z,26.00
2018-07-06T15:24:53.070Z,26.20
2018-07-06T15:27:21.664Z,26.30
2018-07-06T15:29:50.261Z,26.30
2018-07-06T15:32:18.916Z,26.40
2018-07-06T15:34:47.533Z,26.40
2018-07-06T15:37:16.251Z,26.60
2018-07-06T15:39:44.897Z,26.60
2018-07-06T15:42:13.545Z,26.60
2018-07-06T15:44:44.392Z,26.30
2018-07-06T15:47:13.010Z,26.10
2018-07-06T15:49:41.826Z,26.20
2018-07-06T15:52:11.757Z,26.20
2018-07-06T15:54:40.428Z,26.20
2018-07-06T15:57:09.098Z,26.10
2018-07-06T15:59:37.701Z,26.00
2018-07-06T16:02:06.353Z,25.80
2018-07-06T16:04:34.974Z,25.60
2018-07-06T16:07:04.870Z,25.60
2018-07-06T16:09:33.479Z,25.70
2018-07-06T16:12:02.147Z,25.90
2018-07-06T16:14:30.768Z,26.10
2018-07-06T16:16:59.398Z,26.00
2018-07-06T16:19:28.103Z,25.90
2018-07-06T16:21:56.698Z,25.80
2018-07-06T16:24:25.399Z,25.50
2018-07-06T16:26:54.043Z,25.50
2018-07-06T16:29:22.661Z,25.60
2018-07-06T16:31:51.354Z,25.50
2018-07-06T16:34:22.109Z,25.60
2018-07-06T16:36:50.734Z,25.70
2018-07-06T16:39:19.414Z,25.70
2018-07-06T16:41:48.092Z,25.70
2018-07-06T16:44:16.918Z,25.70
2018-07-06T16:46:45.892Z,25.50
2018-07-06T16:49:14.550Z,25.50
2018-07-06T16:51:43.203Z,25.70
2018-07-06T16:54:11.837Z,25.70
2018-07-06T16:56:40.536Z,25.70
2018-07-06T16:59:09.176Z,25.70
2018-07-06T17:01:37.815Z,25.80
2018-07-06T17:04:06.430Z,25.80
2018-07-06T17:06:35.751Z,25.90
2018-07-06T17:09:05.177Z,25.80
2018-07-06T17:11:33.908Z,25.70
2018-07-06T17:14:02.547Z,25.70
2018-07-06T17:16:31.191Z,25.60
2018-07-06T17:18:59.814Z,25.70
2018-07-06T17:21:28.460Z,25.60
2018-07-06T17:23:57.140Z,25.50
2018-07-06T17:26:25.805Z,25.40
2018-07-06T17:28:54.546Z,25.30
2018-07-06T17:31:23.257Z,25.30
2018-07-06T17:33:51.928Z,25.20
2018-07-06T17:36:20.562Z,25.20
2018-07-06T17:38:49.190Z,25.00
2018-07-06T17:41:17.929Z,24.90
2018-07-06T17:43:46.627Z,24.90
2018-07-06T17:46:15.782Z,24.80
2018-07-06T17:48:45.428Z,24.70
2018-07-06T17:51:14.375Z,24.70
2018-07-06T17:53:43.333Z,24.60
2018-07-06T17:56:14.342Z,24.50
2018-07-06T17:58:44.287Z,24.40
2018-07-06T18:06:56.817Z,24.20
2018-07-06T18:09:25.676Z,24.10
2018-07-06T18:11:54.707Z,24.10
2018-07-06T18:14:23.790Z,24.10
2018-07-06T18:16:52.799Z,24.10
2018-07-06T18:19:21.451Z,24.10
2018-07-06T18:21:50.407Z,24.00
2018-07-06T18:24:22.795Z,24.00
2018-07-06T18:26:51.441Z,23.90
2018-07-06T18:29:20.039Z,23.80
2018-07-06T18:31:48.729Z,23.70
2018-07-06T18:34:17.657Z,23.70
2018-07-06T18:36:46.930Z,23.70
2018-07-06T18:39:15.645Z,23.70
2018-07-06T18:41:44.258Z,23.70
2018-07-06T18:44:12.912Z,23.70
2018-07-06T18:46:41.566Z,23.60
2018-07-06T18:49:10.183Z,23.60
2018-07-06T18:51:38.915Z,23.60
2018-07-06T18:54:07.569Z,23.50
2018-07-06T18:56:36.434Z,23.40
2018-07-06T18:59:05.233Z,23.40
2018-07-06T19:01:33.922Z,23.30
2018-07-06T19:04:04.031Z,23.30
2018-07-06T19:06:32.750Z,23.30
2018-07-06T19:09:01.560Z,23.20
2018-07-06T19:11:30.175Z,23.20
2018-07-06T19:13:58.784Z,23.10
2018-07-06T19:16:27.436Z,23.10
2018-07-06T19:18:57.127Z,23.00
2018-07-06T19:21:26.661Z,23.00
2018-07-06T19:23:56.733Z,22.90
2018-07-06T19:26:25.568Z,22.90
2018-07-06T19:28:54.235Z,22.80
2018-07-06T19:31:23.037Z,22.80
2018-07-06T19:33:51.902Z,22.70
2018-07-06T19:36:20.726Z,22.70
2018-07-06T19:38:49.987Z,22.70
2018-07-06T19:41:18.584Z,22.60
2018-07-06T19:43:47.227Z,22.60
2018-07-06T19:46:15.914Z,22.60
2018-07-06T19:48:45.340Z,22.50
2018-07-06T19:51:14.044Z,22.50
2018-07-06T19:53:42.753Z,22.50
2018-07-06T19:56:11.446Z,22.40
2018-07-06T19:58:40.113Z,22.40
2018-07-06T20:01:08.778Z,22.40
2018-07-06T20:03:38.351Z,22.40
2018-07-06T20:06:07.773Z,22.30
2018-07-06T20:08:36.692Z,22.30
2018-07-06T20:11:05.433Z,22.20
2018-07-06T20:13:34.057Z,22.20
2018-07-06T20:16:02.651Z,22.10
2018-07-06T20:18:31.379Z,22.10
2018-07-06T20:21:00.200Z,22.00
2018-07-06T20:23:29.005Z,22.00
2018-07-06T20:25:57.625Z,21.90
2018-07-06T20:28:26.816Z,21.80
2018-07-06T20:30:55.462Z,21.80
2018-07-06T20:33:24.073Z,21.80
2018-07-06T20:35:53.634Z,21.70
2018-07-06T20:38:22.349Z,21.70
2018-07-06T20:40:50.945Z,21.60
2018-07-06T20:43:19.590Z,21.60
2018-07-06T20:45:48.271Z,21.50
2018-07-06T20:48:16.961Z,21.50
2018-07-06T20:50:45.642Z,21.40
2018-07-06T20:53:14.268Z,21.40
2018-07-06T20:55:42.907Z,21.30
2018-07-06T20:58:11.634Z,21.30
2018-07-06T21:00:40.753Z,21.20
2018-07-06T21:03:09.781Z,21.20
2018-07-06T21:05:38.516Z,21.10
2018-07-06T21:08:07.231Z,21.10
2018-07-06T21:10:35.985Z,21.00
2018-07-06T21:13:07.115Z,20.90
2018-07-06T21:15:35.828Z,20.90
2018-07-06T21:18:04.600Z,20.80
2018-07-06T21:20:33.287Z,20.80
2018-07-06T21:23:01.975Z,20.70
2018-07-06T21:25:30.608Z,20.70
2018-07-06T21:27:59.368Z,20.70
2018-07-06T21:30:28.264Z,20.60
2018-07-06T21:32:56.992Z,20.60
2018-07-06T21:35:25.625Z,20.50
2018-07-06T21:37:54.318Z,20.50
2018-07-06T21:40:22.942Z,20.40
2018-07-06T21:42:51.605Z,20.40
2018-07-06T21:45:20.352Z,20.40
2018-07-06T21:47:49.699Z,20.30
2018-07-06T21:50:18.429Z,20.30
2018-07-06T21:52:47.204Z,20.20
2018-07-06T21:55:16.776Z,20.20
2018-07-06T21:57:45.477Z,20.10
2018-07-06T22:00:14.288Z,20.00
2018-07-06T22:02:43.159Z,20.00
2018-07-06T22:05:11.877Z,20.00
2018-07-06T22:07:40.606Z,19.90
2018-07-06T22:10:09.424Z,19.90
2018-07-06T22:12:38.201Z,19.90
2018-07-06T22:15:07.078Z,19.80
2018-07-06T22:17:36.345Z,19.80
2018-07-06T22:20:05.128Z,19.70
2018-07-06T22:22:34.355Z,19.60
2018-07-06T22:25:07.082Z,19.60
2018-07-06T22:27:36.638Z,19.50
2018-07-06T22:30:05.353Z,19.50
2018-07-06T22:32:36.489Z,19.40
2018-07-06T22:35:05.254Z,19.40
2018-07-06T22:37:34.178Z,19.30
2018-07-06T22:40:02.912Z,19.20
2018-07-06T22:42:31.647Z,19.20
2018-07-06T22:45:00.392Z,19.20
2018-07-06T22:47:28.997Z,19.10
2018-07-06T22:49:57.669Z,19.00
2018-07-06T22:52:26.411Z,19.00
2018-07-06T22:54:55.041Z,18.90
2018-07-06T22:57:23.677Z,18.90
2018-07-06T22:59:52.296Z,18.80
2018-07-06T23:02:20.918Z,18.70
2018-07-06T23:04:49.505Z,18.70
2018-07-06T23:07:18.334Z,18.60
2018-07-06T23:09:47.000Z,18.60
2018-07-06T23:12:15.597Z,18.50
2018-07-06T23:14:44.239Z,18.40
2018-07-06T23:17:13.321Z,18.40
2018-07-06T23:19:42.012Z,18.30
2018-07-06T23:22:10.668Z,18.30
2018-07-06T23:24:39.317Z,18.20
2018-07-06T23:27:08.023Z,18.20
2018-07-06T23:29:36.601Z,18.10
2018-07-06T23:32:05.268Z,18.10
2018-07-06T23:34:35.368Z,18.00
2018-07-06T23:37:04.109Z,18.00
2018-07-06T23:39:32.734Z,17.90
2018-07-06T23:42:01.528Z,17.90
2018-07-06T23:44:30.097Z,17.80
2018-07-06T23:46:58.832Z,17.80
2018-07-06T23:49:27.493Z,17.80
2018-07-06T23:51:56.182Z,17.70
2018-07-06T23:54:24.881Z,17.70
2018-07-06T23:56:53.854Z,17.60
2018-07-06T23:59:22.466Z,17.60
